createdAt,value
2022-11-17T00:02:05.848Z,7.50
2022-11-17T00:04:32.631Z,7.50
2022-11-17T00:06:59.889Z,7.50
2022-11-17T00:09:27.052Z,7.50
2022-11-17T00:12:12.677Z,7.40
2022-11-17T00:14:41.351Z,7.40
2022-11-17T00:17:12.137Z,7.40
2022-11-17T00:19:57.793Z,7.40
2022-11-17T00:22:24.948Z,7.40
2022-11-17T00:24:52.067Z,7.40
2022-11-17T00:27:18.790Z,7.30
2022-11-17T00:29:45.524Z,7.30
2022-11-17T00:32:31.796Z,7.30
2022-11-17T00:34:58.640Z,7.30
2022-11-17T00:37:25.711Z,7.30
2022-11-17T00:39:55.256Z,7.20
2022-11-17T00:42:26.187Z,7.20
2022-11-17T00:44:52.912Z,7.20
2022-11-17T00:47:19.696Z,7.20
2022-11-17T00:49:46.471Z,7.20
2022-11-17T00:52:13.398Z,7.20
2022-11-17T00:54:40.131Z,7.20
2022-11-17T00:57:06.901Z,7.20
2022-11-17T00:59:33.793Z,7.20
2022-11-17T01:02:00.635Z,7.20
2022-11-17T01:04:27.432Z,7.20
2022-11-17T01:06:54.245Z,7.20
2022-11-17T01:09:22.536Z,7.20
2022-11-17T01:11:50.578Z,7.20
2022-11-17T01:14:18.985Z,7.10
2022-11-17T01:16:45.782Z,7.10
2022-11-17T01:19:13.275Z,7.10
2022-11-17T01:21:39.995Z,7.10
2022-11-17T01:24:07.045Z,7.10
2022-11-17T01:26:35.456Z,7.00
2022-11-17T01:29:03.125Z,7.00
2022-11-17T01:31:31.192Z,7.00
2022-11-17T01:33:58.310Z,7.00
2022-11-17T01:36:52.582Z,7.10
2022-11-17T01:39:19.558Z,7.00
2022-11-17T01:41:46.457Z,7.00
2022-11-17T01:44:49.189Z,7.00
2022-11-17T01:47:24.806Z,7.00
2022-11-17T01:49:54.426Z,7.00
2022-11-17T01:52:21.562Z,7.00
2022-11-17T01:54:48.731Z,7.00
2022-11-17T01:57:21.067Z,7.00
2022-11-17T01:59:57.227Z,7.00
2022-11-17T02:02:24.055Z,7.00
2022-11-17T02:04:57.625Z,6.90
2022-11-17T02:07:29.942Z,6.90
2022-11-17T02:09:57.204Z,6.90
2022-11-17T02:12:25.471Z,6.90
2022-11-17T02:14:53.219Z,6.80
2022-11-17T02:17:21.838Z,6.80
2022-11-17T02:20:13.312Z,6.80
2022-11-17T02:22:40.113Z,6.80
2022-11-17T02:25:27.515Z,6.80
2022-11-17T02:27:54.256Z,6.70
2022-11-17T02:30:22.368Z,6.70
2022-11-17T02:32:49.128Z,6.70
2022-11-17T02:35:16.011Z,6.70
2022-11-17T02:37:55.565Z,6.70
2022-11-17T02:40:30.168Z,6.70
2022-11-17T02:43:20.395Z,6.60
2022-11-17T02:45:50.488Z,6.60
2022-11-17T02:48:50.512Z,6.60
2022-11-17T02:51:21.064Z,6.60
2022-11-17T02:53:49.302Z,6.60
2022-11-17T02:56:16.117Z,6.60
2022-11-17T02:58:43.116Z,6.60
2022-11-17T03:01:22.561Z,6.60
2022-11-17T03:04:08.416Z,6.60
2022-11-17T03:06:52.137Z,6.60
2022-11-17T03:09:22.243Z,6.60
2022-11-17T03:11:54.093Z,6.60
2022-11-17T03:14:33.126Z,6.60
2022-11-17T03:17:00.386Z,6.60
2022-11-17T03:19:32.585Z,6.60
2022-11-17T03:22:18.244Z,6.60
2022-11-17T03:24:51.247Z,6.60
2022-11-17T03:27:20.900Z,6.60
2022-11-17T03:29:50.921Z,6.60
2022-11-17T03:32:18.124Z,6.60
2022-11-17T03:34:48.904Z,6.60
2022-11-17T03:37:17.128Z,6.60
2022-11-17T03:39:46.587Z,6.60
2022-11-17T03:42:13.585Z,6.50
2022-11-17T03:44:41.076Z,6.50
2022-11-17T03:47:09.953Z,6.50
2022-11-17T03:49:58.308Z,6.50
2022-11-17T03:52:26.319Z,6.50
2022-11-17T03:54:53.831Z,6.50
2022-11-17T03:57:25.197Z,6.40
2022-11-17T03:59:55.176Z,6.40
2022-11-17T04:02:22.924Z,6.40
2022-11-17T04:05:08.106Z,6.40
2022-11-17T04:07:36.545Z,6.40
2022-11-17T04:10:04.355Z,6.40
2022-11-17T04:12:50.036Z,6.30
2022-11-17T04:15:35.182Z,6.30
2022-11-17T04:18:02.168Z,6.30
2022-11-17T04:20:35.984Z,6.30
2022-11-17T04:23:09.490Z,6.30
2022-11-17T04:25:55.961Z,6.30
2022-11-17T04:28:38.478Z,6.30
2022-11-17T04:31:05.388Z,6.30
2022-11-17T04:33:32.671Z,6.30
2022-11-17T04:35:59.631Z,6.30
2022-11-17T04:38:26.407Z,6.30
2022-11-17T04:41:11.914Z,6.30
2022-11-17T04:43:39.249Z,6.30
2022-11-17T04:46:06.169Z,6.30
2022-11-17T04:48:32.923Z,6.30
2022-11-17T04:50:59.700Z,6.30
2022-11-17T04:53:26.509Z,6.30
2022-11-17T04:55:53.276Z,6.30
2022-11-17T04:58:20.044Z,6.20
2022-11-17T05:00:46.817Z,6.20
2022-11-17T05:03:13.611Z,6.20
2022-11-17T05:05:40.528Z,6.20
2022-11-17T05:08:07.284Z,6.20
2022-11-17T05:10:52.964Z,6.20
2022-11-17T05:13:22.689Z,6.20
2022-11-17T05:16:08.513Z,6.20
2022-11-17T05:18:35.304Z,6.10
2022-11-17T05:21:06.183Z,6.10
2022-11-17T05:23:52.047Z,6.10
2022-11-17T05:26:19.242Z,6.10
2022-11-17T05:28:46.002Z,6.10
2022-11-17T05:31:12.817Z,6.00
2022-11-17T05:33:40.495Z,6.00
2022-11-17T05:36:07.979Z,6.00
2022-11-17T05:38:34.810Z,5.90
2022-11-17T05:41:01.887Z,5.90
2022-11-17T05:43:28.685Z,5.90
2022-11-17T05:45:55.426Z,5.90
2022-11-17T05:48:22.413Z,5.90
2022-11-17T05:50:51.914Z,5.80
2022-11-17T05:53:19.220Z,5.80
2022-11-17T05:55:45.955Z,5.80
2022-11-17T05:58:16.166Z,5.80
2022-11-17T06:00:43.629Z,5.80
2022-11-17T06:03:23.769Z,5.80
2022-11-17T06:05:50.537Z,5.80
2022-11-17T06:08:17.276Z,5.80
2022-11-17T06:10:46.191Z,5.80
2022-11-17T06:13:12.972Z,5.70
2022-11-17T06:15:39.807Z,5.70
2022-11-17T06:18:11.793Z,5.70
2022-11-17T06:20:41.371Z,5.70
2022-11-17T06:23:09.931Z,5.70
2022-11-17T06:25:37.393Z,5.70
2022-11-17T06:28:06.146Z,5.70
2022-11-17T06:30:34.211Z,5.70
2022-11-17T06:33:02.057Z,5.70
2022-11-17T06:35:33.386Z,5.70
2022-11-17T06:38:00.450Z,5.70
2022-11-17T06:40:27.606Z,5.70
2022-11-17T06:43:03.557Z,5.70
2022-11-17T06:45:34.314Z,5.70
2022-11-17T06:48:01.421Z,5.60
2022-11-17T06:50:28.205Z,5.70
2022-11-17T06:52:58.704Z,5.70
2022-11-17T06:55:26.133Z,5.60
2022-11-17T06:57:53.702Z,5.60
2022-11-17T07:00:20.980Z,5.60
2022-11-17T07:02:47.757Z,5.60
2022-11-17T07:05:14.557Z,5.60
2022-11-17T07:07:41.471Z,5.60
2022-11-17T07:10:08.655Z,5.60
2022-11-17T07:12:35.679Z,5.60
2022-11-17T07:15:02.643Z,5.60
2022-11-17T07:17:29.771Z,5.60
2022-11-17T07:19:56.868Z,5.60
2022-11-17T07:22:23.808Z,5.60
2022-11-17T07:24:50.629Z,5.60
2022-11-17T07:27:17.506Z,5.60
2022-11-17T07:29:44.300Z,5.60
2022-11-17T07:32:12.000Z,5.60
2022-11-17T07:34:38.863Z,5.60
2022-11-17T07:37:05.724Z,5.60
2022-11-17T07:39:32.485Z,5.70
2022-11-17T07:41:59.303Z,5.70
2022-11-17T07:44:26.020Z,5.70
2022-11-17T07:46:52.905Z,5.70
2022-11-17T07:49:20.574Z,5.80
2022-11-17T07:51:47.479Z,5.80
2022-11-17T07:54:14.377Z,5.80
2022-11-17T07:56:43.806Z,5.80
2022-11-17T07:59:10.839Z,5.80
2022-11-17T08:01:37.655Z,5.80
2022-11-17T08:04:04.702Z,5.80
2022-11-17T08:06:31.649Z,5.80
2022-11-17T08:08:58.402Z,5.80
2022-11-17T08:11:25.895Z,5.80
2022-11-17T08:13:54.645Z,5.80
2022-11-17T08:16:21.581Z,5.80
2022-11-17T08:18:52.205Z,5.80
2022-11-17T08:21:20.352Z,5.90
2022-11-17T08:23:49.975Z,5.90
2022-11-17T08:26:16.847Z,5.90
2022-11-17T08:28:43.717Z,5.90
2022-11-17T08:31:10.826Z,5.90
2022-11-17T08:33:37.712Z,5.90
2022-11-17T08:36:05.888Z,5.90
2022-11-17T08:38:36.845Z,6.00
2022-11-17T08:41:05.123Z,6.00
2022-11-17T08:43:32.307Z,6.00
2022-11-17T08:45:59.226Z,6.00
2022-11-17T08:48:26.377Z,6.00
2022-11-17T08:50:53.300Z,6.00
2022-11-17T08:53:21.172Z,6.00
2022-11-17T08:55:48.141Z,6.00
2022-11-17T08:58:15.378Z,6.10
2022-11-17T09:00:42.672Z,6.10
2022-11-17T09:03:10.337Z,6.10
2022-11-17T09:05:38.963Z,6.10
2022-11-17T09:08:29.570Z,6.00
2022-11-17T09:10:52.616Z,6.10
2022-11-17T09:13:19.570Z,6.00
2022-11-17T09:15:46.514Z,6.00
2022-11-17T09:18:13.308Z,6.00
2022-11-17T09:20:45.353Z,6.00
2022-11-17T09:23:12.589Z,6.00
2022-11-17T09:25:40.068Z,5.90
2022-11-17T09:28:07.010Z,6.00
2022-11-17T09:30:33.823Z,6.00
2022-11-17T09:33:00.713Z,5.90
2022-11-17T09:35:27.574Z,6.00
2022-11-17T09:37:58.328Z,5.90
2022-11-17T09:40:25.102Z,5.90
2022-11-17T09:42:51.913Z,5.90
2022-11-17T09:45:27.540Z,5.90
2022-11-17T09:48:18.563Z,5.90
2022-11-17T09:50:48.053Z,5.90
2022-11-17T09:53:15.138Z,5.90
2022-11-17T09:55:43.481Z,5.90
2022-11-17T09:58:25.845Z,5.90
2022-11-17T10:00:53.919Z,5.90
2022-11-17T10:03:22.207Z,5.90
2022-11-17T10:05:49.266Z,5.90
2022-11-17T10:08:18.535Z,5.90
2022-11-17T10:10:47.038Z,5.90
2022-11-17T10:13:16.864Z,5.80
2022-11-17T10:15:47.552Z,5.90
2022-11-17T10:18:18.203Z,5.90
2022-11-17T10:20:48.025Z,5.80
2022-11-17T10:23:19.623Z,5.80
2022-11-17T10:25:47.438Z,5.90
2022-11-17T10:28:25.479Z,5.90
2022-11-17T10:30:53.716Z,5.90
2022-11-17T10:33:32.201Z,5.90
2022-11-17T10:35:59.277Z,5.90
2022-11-17T10:38:29.004Z,5.90
2022-11-17T10:40:58.504Z,5.90
2022-11-17T10:43:27.126Z,5.90
2022-11-17T10:45:53.944Z,5.90
2022-11-17T10:48:20.791Z,5.90
2022-11-17T10:50:51.516Z,6.00
2022-11-17T10:53:22.932Z,6.00
2022-11-17T10:55:54.455Z,6.00
2022-11-17T10:58:29.124Z,6.10
2022-11-17T11:01:00.000Z,6.10
2022-11-17T11:03:31.169Z,6.20
2022-11-17T11:05:58.023Z,6.20
2022-11-17T11:08:26.315Z,6.30
2022-11-17T11:10:53.615Z,6.40
2022-11-17T11:13:26.008Z,6.40
2022-11-17T11:15:53.668Z,6.50
2022-11-17T11:18:20.933Z,6.50
2022-11-17T11:21:20.331Z,6.50
2022-11-17T11:24:05.971Z,6.50
2022-11-17T11:26:42.086Z,6.50
2022-11-17T11:29:20.472Z,6.50
2022-11-17T11:31:50.515Z,6.60
2022-11-17T11:34:17.257Z,6.50
2022-11-17T11:36:53.996Z,6.50
2022-11-17T11:39:28.994Z,6.50
2022-11-17T11:42:07.471Z,6.60
2022-11-17T11:44:55.258Z,6.70
2022-11-17T11:47:25.221Z,6.70
2022-11-17T11:49:52.057Z,6.70
2022-11-17T11:52:21.009Z,6.70
2022-11-17T11:54:54.812Z,6.70
2022-11-17T11:57:26.032Z,6.70
2022-11-17T12:00:02.384Z,6.60
2022-11-17T12:02:36.911Z,6.60
2022-11-17T12:05:20.149Z,6.60
2022-11-17T12:07:59.170Z,6.60
2022-11-17T12:10:43.050Z,6.60
2022-11-17T12:13:17.450Z,6.70
2022-11-17T12:15:44.275Z,6.60
2022-11-17T12:18:31.269Z,6.60
2022-11-17T12:21:01.367Z,6.60
2022-11-17T12:23:40.392Z,6.60
2022-11-17T12:26:07.456Z,6.60
2022-11-17T12:28:39.219Z,6.70
2022-11-17T12:31:21.590Z,6.70
2022-11-17T12:33:54.586Z,6.70
2022-11-17T12:36:30.031Z,6.80
2022-11-17T12:38:58.506Z,6.80
2022-11-17T12:41:44.154Z,6.80
2022-11-17T12:44:29.950Z,6.80
2022-11-17T12:46:59.860Z,6.80
2022-11-17T12:49:31.812Z,6.90
2022-11-17T12:52:03.549Z,6.90
2022-11-17T12:54:54.786Z,6.90
2022-11-17T12:57:25.050Z,6.90
2022-11-17T13:00:01.009Z,6.90
2022-11-17T13:02:27.895Z,6.90
2022-11-17T13:05:00.961Z,6.90
2022-11-17T13:07:27.927Z,6.90
2022-11-17T13:09:57.149Z,6.90
2022-11-17T13:12:25.937Z,6.80
2022-11-17T13:14:56.974Z,6.90
2022-11-17T13:17:27.563Z,6.90
2022-11-17T13:20:01.538Z,6.90
2022-11-17T13:22:28.591Z,6.90
2022-11-17T13:24:55.586Z,6.90
2022-11-17T13:27:24.473Z,6.90
2022-11-17T13:29:51.861Z,6.90
2022-11-17T13:32:21.309Z,7.00
2022-11-17T13:35:00.959Z,7.00
2022-11-17T13:37:28.937Z,7.00
2022-11-17T13:39:56.897Z,7.00
2022-11-17T13:42:24.501Z,7.00
2022-11-17T13:44:52.232Z,7.10
2022-11-17T13:47:20.835Z,7.10
2022-11-17T13:49:48.018Z,7.20
2022-11-17T13:52:40.415Z,7.20
2022-11-17T13:55:15.766Z,7.20
2022-11-17T13:57:53.848Z,7.20
2022-11-17T14:00:20.861Z,7.20
2022-11-17T14:03:01.097Z,7.20
2022-11-17T14:05:28.851Z,7.20
2022-11-17T14:07:57.254Z,7.20
2022-11-17T14:10:31.878Z,7.20
2022-11-17T14:13:01.730Z,7.10
2022-11-17T14:15:29.701Z,7.10
2022-11-17T14:18:01.148Z,7.10
2022-11-17T14:20:35.374Z,7.00
2022-11-17T14:23:15.921Z,7.00
2022-11-17T14:25:43.608Z,7.00
2022-11-17T14:28:20.933Z,7.00
2022-11-17T14:30:48.011Z,7.00
2022-11-17T14:33:14.930Z,7.00
2022-11-17T14:35:42.079Z,7.00
2022-11-17T14:38:19.312Z,7.00
2022-11-17T14:40:46.616Z,7.00
2022-11-17T14:43:13.431Z,7.00
2022-11-17T14:45:40.206Z,7.10
2022-11-17T14:48:07.394Z,7.10
2022-11-17T14:50:34.518Z,7.10
2022-11-17T14:53:01.379Z,7.10
2022-11-17T14:55:28.190Z,7.10
2022-11-17T14:57:55.254Z,7.10
2022-11-17T15:00:22.205Z,7.10
2022-11-17T15:02:49.538Z,7.10
2022-11-17T15:05:16.558Z,7.10
2022-11-17T15:07:44.142Z,7.10
2022-11-17T15:10:10.982Z,7.10
2022-11-17T15:12:37.985Z,7.10
2022-11-17T15:15:05.194Z,7.20
2022-11-17T15:17:34.717Z,7.20
2022-11-17T15:20:01.585Z,7.10
2022-11-17T15:22:28.650Z,7.10
2022-11-17T15:24:55.631Z,7.00
2022-11-17T15:27:22.552Z,7.00
2022-11-17T15:29:49.599Z,6.90
2022-11-17T15:32:16.837Z,6.90
2022-11-17T15:34:44.119Z,6.90
2022-11-17T15:37:11.326Z,6.80
2022-11-17T15:39:38.247Z,6.80
2022-11-17T15:42:05.483Z,6.80
2022-11-17T15:44:32.401Z,6.80
2022-11-17T15:46:59.201Z,6.80
2022-11-17T15:49:25.984Z,6.80
2022-11-17T15:51:52.971Z,6.80
2022-11-17T15:54:20.996Z,6.90
2022-11-17T15:56:48.298Z,6.80
2022-11-17T15:59:15.518Z,6.80
2022-11-17T16:01:42.904Z,6.80
2022-11-17T16:04:15.732Z,6.80
2022-11-17T16:06:44.321Z,6.80
2022-11-17T16:09:12.396Z,6.80
2022-11-17T16:11:40.105Z,6.80
2022-11-17T16:14:12.264Z,6.80
2022-11-17T16:16:40.099Z,6.80
2022-11-17T16:19:07.407Z,6.80
2022-11-17T16:21:34.867Z,6.80
2022-11-17T16:24:02.382Z,6.80
2022-11-17T16:26:29.908Z,6.80
2022-11-17T16:28:58.054Z,6.70
2022-11-17T16:31:25.973Z,6.70
2022-11-17T16:33:54.219Z,6.70
2022-11-17T16:36:21.997Z,6.70
2022-11-17T16:39:02.122Z,6.70
2022-11-17T16:41:31.705Z,6.80
2022-11-17T16:43:58.867Z,6.80
2022-11-17T16:46:27.030Z,6.70
2022-11-17T16:48:53.911Z,6.70
2022-11-17T16:51:21.301Z,6.80
2022-11-17T16:53:54.301Z,6.70
2022-11-17T16:56:21.383Z,6.70
2022-11-17T16:58:51.748Z,6.70
2022-11-17T17:01:20.182Z,6.70
2022-11-17T17:03:46.983Z,6.70
2022-11-17T17:06:14.859Z,6.70
2022-11-17T17:08:41.877Z,6.70
2022-11-17T17:11:10.128Z,6.70
2022-11-17T17:13:37.065Z,6.60
2022-11-17T17:16:22.377Z,6.70
2022-11-17T17:18:54.055Z,6.60
2022-11-17T17:21:20.975Z,6.60
2022-11-17T17:23:47.829Z,6.60
2022-11-17T17:26:19.073Z,6.60
2022-11-17T17:28:46.861Z,6.60
2022-11-17T17:31:20.724Z,6.60
2022-11-17T17:33:48.804Z,6.60
2022-11-17T17:36:17.185Z,6.60
2022-11-17T17:38:45.321Z,6.60
2022-11-17T17:41:15.563Z,6.60
2022-11-17T17:43:43.239Z,6.60
2022-11-17T17:46:15.444Z,6.50
2022-11-17T17:48:43.706Z,6.50
2022-11-17T17:51:14.959Z,6.50
2022-11-17T17:53:41.991Z,6.50
2022-11-17T17:56:10.004Z,6.60
2022-11-17T17:58:42.800Z,6.50
2022-11-17T18:01:17.132Z,6.50
2022-11-17T18:03:46.062Z,6.50
2022-11-17T18:06:13.386Z,6.50
2022-11-17T18:08:40.334Z,6.50
2022-11-17T18:11:08.777Z,6.50
2022-11-17T18:13:37.565Z,6.50
2022-11-17T18:16:05.563Z,6.50
2022-11-17T18:18:33.233Z,6.50
2022-11-17T18:21:01.360Z,6.40
2022-11-17T18:23:29.488Z,6.40
2022-11-17T18:25:57.044Z,6.40
2022-11-17T18:28:24.625Z,6.30
2022-11-17T18:30:51.644Z,6.30
2022-11-17T18:33:18.445Z,6.30
2022-11-17T18:35:45.415Z,6.30
2022-11-17T18:38:12.263Z,6.20
2022-11-17T18:40:39.176Z,6.20
2022-11-17T18:43:06.028Z,6.20
2022-11-17T18:45:36.103Z,6.10
2022-11-17T18:48:03.106Z,6.10
2022-11-17T18:50:29.900Z,6.10
2022-11-17T18:52:57.269Z,6.10
2022-11-17T18:55:24.089Z,6.10
2022-11-17T18:57:51.020Z,6.00
2022-11-17T19:00:17.893Z,6.00
2022-11-17T19:02:44.683Z,6.00
2022-11-17T19:05:11.524Z,6.00
2022-11-17T19:07:41.419Z,5.90
2022-11-17T19:10:08.668Z,6.00
2022-11-17T19:12:35.659Z,5.90
2022-11-17T19:15:02.593Z,6.00
2022-11-17T19:17:29.464Z,5.90
2022-11-17T19:19:56.547Z,5.90
2022-11-17T19:22:23.322Z,5.90
2022-11-17T19:24:50.344Z,5.90
2022-11-17T19:27:17.494Z,5.90
2022-11-17T19:29:44.329Z,5.90
2022-11-17T19:32:11.390Z,5.90
2022-11-17T19:34:38.350Z,5.90
2022-11-17T19:37:05.461Z,5.90
2022-11-17T19:39:32.505Z,5.90
2022-11-17T19:41:59.488Z,5.80
2022-11-17T19:44:28.108Z,5.80
2022-11-17T19:46:55.143Z,5.80
2022-11-17T19:49:22.148Z,5.80
2022-11-17T19:51:49.074Z,5.80
2022-11-17T19:54:15.927Z,5.80
2022-11-17T19:56:43.023Z,5.70
2022-11-17T19:59:15.584Z,5.80
2022-11-17T20:01:43.507Z,5.80
2022-11-17T20:04:10.576Z,5.80
2022-11-17T20:06:38.531Z,5.80
2022-11-17T20:09:09.821Z,5.80
2022-11-17T20:11:36.941Z,5.80
2022-11-17T20:14:04.213Z,5.80
2022-11-17T20:16:32.138Z,5.80
2022-11-17T20:19:00.408Z,5.90
2022-11-17T20:21:28.163Z,5.90
2022-11-17T20:23:55.732Z,5.90
2022-11-17T20:26:24.037Z,5.90
2022-11-17T20:28:51.882Z,6.00
2022-11-17T20:31:20.205Z,5.90
2022-11-17T20:33:47.805Z,6.00
2022-11-17T20:36:16.119Z,6.00
2022-11-17T20:38:44.760Z,6.00
2022-11-17T20:41:11.830Z,6.00
2022-11-17T20:43:38.996Z,6.00
2022-11-17T20:46:06.095Z,6.10
2022-11-17T20:48:35.392Z,6.10
2022-11-17T20:51:03.527Z,6.10
2022-11-17T20:53:30.975Z,6.10
2022-11-17T20:55:58.836Z,6.10
2022-11-17T20:58:26.665Z,6.10
2022-11-17T21:00:53.951Z,6.10
2022-11-17T21:03:21.434Z,6.10
2022-11-17T21:05:59.327Z,6.10
2022-11-17T21:08:28.126Z,6.10
2022-11-17T21:10:58.868Z,6.10
2022-11-17T21:13:26.105Z,6.10
2022-11-17T21:16:06.543Z,6.10
2022-11-17T21:18:33.827Z,6.10
2022-11-17T21:21:01.670Z,6.20
2022-11-17T21:23:28.910Z,6.20
2022-11-17T21:25:56.521Z,6.20
2022-11-17T21:28:23.731Z,6.10
2022-11-17T21:30:50.786Z,6.20
2022-11-17T21:33:18.036Z,6.10
2022-11-17T21:35:44.806Z,6.20
2022-11-17T21:38:13.315Z,6.20
2022-11-17T21:40:40.690Z,6.20
2022-11-17T21:43:08.719Z,6.20
2022-11-17T21:45:35.774Z,6.20
2022-11-17T21:48:02.605Z,6.20
2022-11-17T21:50:29.454Z,6.20
2022-11-17T21:52:56.808Z,6.20
2022-11-17T21:55:24.890Z,6.20
2022-11-17T21:57:51.858Z,6.20
2022-11-17T22:00:18.955Z,6.20
2022-11-17T22:02:46.024Z,6.20
2022-11-17T22:05:13.092Z,6.20
2022-11-17T22:07:40.385Z,6.20
2022-11-17T22:10:07.569Z,6.20
2022-11-17T22:12:34.532Z,6.20
2022-11-17T22:15:01.544Z,6.30
2022-11-17T22:17:28.650Z,6.20
2022-11-17T22:19:58.643Z,6.20
2022-11-17T22:22:25.491Z,6.30
2022-11-17T22:24:52.330Z,6.20
2022-11-17T22:27:20.140Z,6.20
2022-11-17T22:29:47.018Z,6.30
2022-11-17T22:32:13.855Z,6.20
2022-11-17T22:34:40.698Z,6.20
2022-11-17T22:37:07.501Z,6.20
2022-11-17T22:39:34.316Z,6.20
2022-11-17T22:42:01.162Z,6.20
2022-11-17T22:44:28.097Z,6.20
2022-11-17T22:46:54.991Z,6.20
2022-11-17T22:49:21.820Z,6.20
2022-11-17T22:52:04.206Z,6.20
2022-11-17T22:54:31.000Z,6.20
2022-11-17T22:56:58.365Z,6.20
2022-11-17T22:59:25.921Z,6.20
2022-11-17T23:01:52.971Z,6.20
2022-11-17T23:04:19.801Z,6.20
2022-11-17T23:06:49.710Z,6.20
2022-11-17T23:09:16.701Z,6.10
2022-11-17T23:11:43.893Z,6.10
2022-11-17T23:14:12.310Z,6.10
2022-11-17T23:16:39.341Z,6.20
2022-11-17T23:19:06.680Z,6.20
2022-11-17T23:21:33.488Z,6.10
2022-11-17T23:24:00.231Z,6.20
2022-11-17T23:26:27.094Z,6.10
2022-11-17T23:28:53.993Z,6.20
2022-11-17T23:31:21.064Z,6.20
2022-11-17T23:33:48.008Z,6.20
2022-11-17T23:36:16.207Z,6.20
2022-11-17T23:38:43.342Z,6.20
2022-11-17T23:41:11.240Z,6.10
2022-11-17T23:43:39.658Z,6.10
2022-11-17T23:46:07.481Z,6.10
2022-11-17T23:48:34.535Z,6.10
2022-11-17T23:51:05.326Z,6.10
2022-11-17T23:53:32.584Z,6.10
2022-11-17T23:55:59.873Z,6.00
2022-11-17T23:58:27.002Z,6.00
